Time;durP1;ratioP1;P1;durP2;ratioP2;P2;SDS_P1;SDS_P2;PMS_P1;PMS_P2;Temp;Humidity;BMP_temperature;BMP_pressure;BME280_temperature;BME280_humidity;BME280_pressure;Samples;Min_cycle;Max_cycle;Signal;HPM_P1;HPM_P2
2023/10/06 00:03:10;;;;;;;5.57;2.47;;;;;;;18.31;49.96;100380.47;4380791;32;33504;-69
2023/10/06 00:05:38;;;;;;;4.78;2.80;;;;;;;18.25;49.98;100381.06;4380385;32;34174;-69
2023/10/06 00:08:11;;;;;;;10.13;2.92;;;;;;;17.87;50.86;100380.19;4393304;32;36212;-69
2023/10/06 00:10:44;;;;;;;4.15;2.47;;;;;;;17.95;50.50;100387.59;4384507;32;33893;-69
2023/10/06 00:13:18;;;;;;;4.15;2.05;;;;;;;17.90;50.31;100385.31;4384652;32;33517;-69
2023/10/06 00:15:49;;;;;;;4.95;2.67;;;;;;;17.88;50.23;100381.91;4383184;32;35310;-70
2023/10/06 00:18:26;;;;;;;3.33;1.55;;;;;;;17.78;50.39;100382.91;4378994;32;34258;-69
2023/10/06 00:21:03;;;;;;;3.92;2.45;;;;;;;17.80;50.21;100392.59;4383538;32;33712;-69
2023/10/06 00:23:38;;;;;;;3.90;2.12;;;;;;;17.84;49.98;100390.44;4380071;32;34539;-70
2023/10/06 00:26:10;;;;;;;7.80;2.67;;;;;;;17.70;50.35;100395.28;4385366;32;33684;-68
2023/10/06 00:28:39;;;;;;;7.87;2.60;;;;;;;17.64;50.47;100401.28;4384016;32;34024;-68
2023/10/06 00:31:08;;;;;;;5.32;2.40;;;;;;;17.56;50.60;100397.59;4385158;32;33362;-68
2023/10/06 00:33:41;;;;;;;3.95;2.08;;;;;;;17.57;50.52;100391.19;4384888;32;34164;-68
2023/10/06 00:36:28;;;;;;;3.40;2.10;;;;;;;17.61;50.17;100398.03;4389600;32;33306;-68
2023/10/06 00:38:56;;;;;;;5.85;2.35;;;;;;;17.68;50.04;100400.00;4384962;32;35352;-69
2023/10/06 00:41:26;;;;;;;3.95;2.03;;;;;;;17.71;50.00;100396.16;4378281;32;34083;-68
2023/10/06 00:43:56;;;;;;;7.28;2.65;;;;;;;17.73;49.64;100396.87;4382210;32;34495;-68
2023/10/06 00:46:24;;;;;;;4.85;1.52;;;;;;;17.63;49.66;100399.59;4384770;32;33696;-68
2023/10/06 00:48:53;;;;;;;3.20;2.12;;;;;;;17.75;49.09;100400.25;4390679;32;33704;-69
2023/10/06 00:51:27;;;;;;;2.90;1.67;;;;;;;17.77;48.84;100400.16;4369674;32;34200;-69
2023/10/06 00:53:59;;;;;;;7.78;3.15;;;;;;;17.76;48.64;100396.56;4376711;32;33200;-68
2023/10/06 00:56:28;;;;;;;7.28;2.35;;;;;;;17.80;48.36;100398.03;4379342;32;34958;-68
2023/10/06 00:58:57;;;;;;;6.40;2.65;;;;;;;17.78;48.17;100394.59;4390039;32;34335;-69
2023/10/06 01:01:24;;;;;;;6.57;2.58;;;;;;;17.75;47.97;100392.13;4382688;32;33693;-68
2023/10/06 01:04:01;;;;;;;11.52;2.00;;;;;;;17.70;48.09;100394.44;4382543;32;33948;-69
2023/10/06 01:06:33;;;;;;;3.08;1.25;;;;;;;17.71;47.93;100393.44;4381277;32;33602;-68
2023/10/06 01:09:14;;;;;;;4.45;2.40;;;;;;;17.70;47.82;100391.75;4383266;32;33748;-69
2023/10/06 01:11:49;;;;;;;5.78;2.35;;;;;;;17.77;47.42;100390.19;4385235;32;34564;-69
2023/10/06 01:14:21;;;;;;;4.60;1.62;;;;;;;17.78;47.83;100393.75;4382096;32;33490;-69
2023/10/06 01:16:50;;;;;;;2.85;1.73;;;;;;;17.68;48.00;100391.03;4388587;32;34664;-68
2023/10/06 01:19:28;;;;;;;5.53;1.62;;;;;;;17.76;48.03;100385.75;4378087;32;33928;-68
2023/10/06 01:21:56;;;;;;;8.48;2.15;;;;;;;17.78;48.06;100391.88;4388216;32;33564;-68
2023/10/06 01:24:24;;;;;;;5.68;3.05;;;;;;;17.58;48.94;100390.19;4385018;32;33249;-68
2023/10/06 01:27:06;;;;;;;5.60;2.62;;;;;;;17.77;48.16;100389.34;4382944;32;33737;-68
2023/10/06 01:29:35;;;;;;;3.12;1.95;;;;;;;17.63;48.66;100394.19;4383464;32;33499;-69
2023/10/06 01:32:05;;;;;;;4.22;2.45;;;;;;;17.70;48.41;100398.00;4386730;32;34062;-68
2023/10/06 01:34:38;;;;;;;7.32;2.42;;;;;;;17.73;48.31;100401.44;4381703;32;33310;-68
2023/10/06 01:37:07;;;;;;;4.87;2.55;;;;;;;17.59;48.89;100408.12;4382381;32;33831;-69
2023/10/06 01:39:36;;;;;;;5.03;2.25;;;;;;;17.67;48.76;100408.28;4383338;32;35172;-67
2023/10/06 01:42:07;;;;;;;3.55;1.85;;;;;;;17.71;48.38;100409.69;4389028;32;34717;-69
2023/10/06 01:44:34;;;;;;;2.95;1.70;;;;;;;17.72;48.20;100403.28;4387000;32;33433;-69
2023/10/06 01:47:04;;;;;;;1.90;1.48;;;;;;;17.67;48.23;100413.69;4392071;32;33796;-68
2023/10/06 01:49:36;;;;;;;3.95;1.73;;;;;;;17.57;48.39;100410.13;4383808;32;34076;-68
2023/10/06 01:52:05;;;;;;;3.80;1.62;;;;;;;17.50;48.44;100414.41;4384631;32;33535;-67
2023/10/06 01:54:36;;;;;;;2.50;1.45;;;;;;;17.48;48.41;100417.25;4378256;32;33069;-68
2023/10/06 01:57:06;;;;;;;1.27;1.12;;;;;;;17.39;48.45;100415.41;4384336;32;33890;-69
2023/10/06 01:59:34;;;;;;;1.98;1.42;;;;;;;17.25;48.56;100415.84;4384850;32;34207;-68
2023/10/06 02:02:07;;;;;;;6.25;3.08;;;;;;;17.26;48.38;100418.38;4383338;32;33679;-69
2023/10/06 02:04:45;;;;;;;4.85;1.62;;;;;;;17.19;48.49;100418.09;4383128;32;33184;-69
2023/10/06 02:07:13;;;;;;;4.43;1.75;;;;;;;17.19;48.29;100422.66;4385417;32;33724;-69
2023/10/06 02:09:42;;;;;;;5.35;1.90;;;;;;;17.20;48.32;100424.34;4388572;32;35877;-69
2023/10/06 02:12:10;;;;;;;3.75;1.90;;;;;;;17.21;48.38;100428.78;4386402;32;33653;-69
2023/10/06 02:14:37;;;;;;;9.20;4.43;;;;;;;17.24;48.27;100431.22;4387668;32;33039;-68
2023/10/06 02:17:06;;;;;;;5.45;1.85;;;;;;;17.16;48.32;100433.75;4377261;32;33941;-69
2023/10/06 02:19:34;;;;;;;3.37;1.58;;;;;;;17.23;48.16;100434.91;4383422;32;33723;-68
2023/10/06 02:22:06;;;;;;;4.37;2.20;;;;;;;17.30;47.65;100438.75;4388845;32;33916;-68
2023/10/06 02:24:35;;;;;;;6.40;2.67;;;;;;;17.26;47.69;100431.91;4388567;32;33294;-68
2023/10/06 02:27:04;;;;;;;7.22;2.58;;;;;;;17.18;47.86;100424.50;4382795;32;34013;-67
2023/10/06 02:29:31;;;;;;;3.20;1.75;;;;;;;17.25;47.59;100423.94;4376877;32;34292;-67
2023/10/06 02:32:17;;;;;;;11.98;1.98;;;;;;;17.28;47.27;100418.25;4386726;32;34007;-67
2023/10/06 02:34:45;;;;;;;2.65;1.23;;;;;;;17.26;47.33;100421.09;4382826;32;34597;-67
2023/10/06 02:37:13;;;;;;;12.15;1.73;;;;;;;17.28;47.52;100419.09;4384350;32;33322;-69
2023/10/06 02:39:43;;;;;;;5.30;1.95;;;;;;;17.19;47.65;100433.47;4390749;32;34252;-68
2023/10/06 02:42:13;;;;;;;2.92;1.42;;;;;;;17.29;47.20;100431.62;4377417;32;33711;-72
2023/10/06 02:44:42;;;;;;;2.30;1.23;;;;;;;17.33;47.36;100440.31;4381286;32;32936;-72
2023/10/06 02:47:10;;;;;;;3.75;1.67;;;;;;;17.35;47.50;100441.03;4382438;32;33618;-72
2023/10/06 02:49:40;;;;;;;2.33;1.25;;;;;;;17.22;47.58;100444.03;4386640;32;34193;-71
2023/10/06 02:52:46;;;;;;;2.92;1.35;;;;;;;17.39;46.94;100437.03;4382961;32;33970;-72
2023/10/06 02:57:41;;;;;;;5.60;1.98;;;;;;;17.38;47.66;100443.47;4379378;32;32483;-69
2023/10/06 03:02:55;;;;;;;4.68;1.87;;;;;;;17.34;47.54;100439.34;4384313;32;34376;-72
2023/10/06 03:05:33;;;;;;;2.90;1.75;;;;;;;17.44;47.03;100437.50;4387676;32;34105;-72
2023/10/06 03:08:08;;;;;;;4.30;2.40;;;;;;;17.38;47.17;100443.47;4381702;32;33576;-72
2023/10/06 03:10:44;;;;;;;5.62;1.48;;;;;;;17.43;46.45;100447.47;4381383;32;33636;-71
2023/10/06 03:13:16;;;;;;;4.07;1.85;;;;;;;17.43;46.43;100442.06;4387218;32;32879;-67
2023/10/06 03:15:46;;;;;;;2.35;0.68;;;;;;;17.37;46.81;100439.06;4387271;32;33401;-68
2023/10/06 03:18:16;;;;;;;3.47;1.30;;;;;;;17.52;46.43;100443.03;4382124;32;33599;-72
2023/10/06 03:20:48;;;;;;;1.08;0.93;;;;;;;17.40;46.58;100439.63;4378110;32;34915;-72
2023/10/06 03:26:28;;;;;;;5.60;1.92;;;;;;;17.41;46.77;100437.78;4368900;32;32786;-71
2023/10/06 03:29:02;;;;;;;4.82;2.55;;;;;;;17.30;46.75;100436.03;4380752;32;34605;-71
2023/10/06 03:31:44;;;;;;;5.50;2.83;;;;;;;17.18;47.25;100437.19;4371686;32;33957;-71
2023/10/06 03:34:16;;;;;;;6.03;1.70;;;;;;;17.13;47.62;100444.84;4371444;32;33684;-67
2023/10/06 03:36:51;;;;;;;4.78;2.25;;;;;;;17.32;46.92;100436.75;4367785;32;33558;-72
2023/10/06 03:39:27;;;;;;;6.60;2.47;;;;;;;16.92;49.08;100443.13;4371115;32;33892;-69
2023/10/06 03:42:03;;;;;;;6.57;3.20;;;;;;;16.29;49.84;100437.84;4366231;32;33718;-68
2023/10/06 03:44:32;;;;;;;11.27;2.35;;;;;;;16.76;48.17;100446.34;4370826;32;33393;-70
2023/10/06 03:47:00;;;;;;;4.87;1.42;;;;;;;17.05;47.67;100448.28;4360687;32;33160;-71
2023/10/06 03:49:33;;;;;;;5.37;2.65;;;;;;;16.76;48.46;100437.37;4370857;32;34915;-71
2023/10/06 03:52:03;;;;;;;12.60;2.08;;;;;;;17.07;47.40;100451.66;4361891;32;33944;-71
2023/10/06 03:54:30;;;;;;;10.07;3.00;;;;;;;17.15;47.14;100457.25;4373660;32;33930;-70
2023/10/06 03:56:58;;;;;;;2.55;1.12;;;;;;;17.28;46.79;100454.28;4372193;32;32889;-71
2023/10/06 03:59:27;;;;;;;2.83;1.70;;;;;;;17.33;46.84;100459.25;4371977;32;33538;-70
2023/10/06 04:01:55;;;;;;;7.90;1.95;;;;;;;17.32;47.23;100455.69;4369836;32;33885;-72
2023/10/06 04:04:23;;;;;;;5.10;2.45;;;;;;;17.34;46.83;100463.69;4381303;32;34240;-69
2023/10/06 04:06:54;;;;;;;3.72;1.62;;;;;;;17.26;46.87;100455.41;4379590;32;33237;-72
2023/10/06 04:09:27;;;;;;;2.40;1.83;;;;;;;17.21;47.00;100458.53;4385919;32;33619;-71
2023/10/06 04:12:01;;;;;;;6.30;2.12;;;;;;;17.18;47.12;100458.81;4377785;32;35165;-70
2023/10/06 04:14:31;;;;;;;3.90;1.85;;;;;;;16.49;49.45;100455.00;4382663;32;34835;-72
2023/10/06 04:17:02;;;;;;;6.70;2.75;;;;;;;16.76;48.16;100459.00;4385120;32;33402;-72
2023/10/06 04:19:30;;;;;;;5.00;1.75;;;;;;;16.68;49.18;100458.78;4377380;32;34667;-72
2023/10/06 04:21:57;;;;;;;5.40;1.95;;;;;;;16.79;48.37;100460.56;4388539;32;34380;-68
2023/10/06 04:24:25;;;;;;;4.15;2.33;;;;;;;16.86;48.07;100465.28;4385093;32;35210;-73
2023/10/06 04:26:53;;;;;;;6.12;2.50;;;;;;;16.59;48.78;100463.16;4386763;32;33078;-73
2023/10/06 04:29:23;;;;;;;3.92;1.80;;;;;;;16.67;48.49;100467.91;4389080;32;34021;-73
2023/10/06 04:31:51;;;;;;;8.30;2.33;;;;;;;16.73;48.45;100462.81;4380319;32;34076;-74
2023/10/06 04:34:22;;;;;;;4.87;2.17;;;;;;;16.85;48.35;100466.25;4382500;32;33552;-72
2023/10/06 04:36:51;;;;;;;2.37;1.70;;;;;;;16.59;48.76;100462.31;4385513;32;33597;-71
2023/10/06 04:39:19;;;;;;;5.43;1.75;;;;;;;16.76;48.48;100465.25;4387755;32;33841;-71
2023/10/06 04:41:47;;;;;;;6.28;1.67;;;;;;;16.82;48.29;100465.69;4384235;32;33847;-71
2023/10/06 04:44:15;;;;;;;1.58;0.93;;;;;;;16.71;48.55;100459.38;4383062;32;33964;-71
2023/10/06 04:46:43;;;;;;;3.78;1.48;;;;;;;16.71;48.89;100466.63;4381541;32;32785;-71
2023/10/06 04:49:11;;;;;;;5.05;3.42;;;;;;;16.43;49.27;100470.91;4389328;32;33779;-71
2023/10/06 04:51:39;;;;;;;8.00;2.35;;;;;;;16.61;48.70;100463.87;4384890;32;35646;-71
2023/10/06 04:54:08;;;;;;;3.95;1.98;;;;;;;16.51;48.89;100474.66;4385128;32;34429;-71
2023/10/06 04:56:36;;;;;;;5.43;2.12;;;;;;;16.63;48.63;100475.44;4385351;32;33555;-71
2023/10/06 04:59:05;;;;;;;8.40;3.37;;;;;;;16.60;48.76;100480.25;4391428;32;34169;-71
2023/10/06 05:01:34;;;;;;;2.37;1.35;;;;;;;16.30;49.35;100484.63;4390081;32;33798;-71
2023/10/06 05:04:06;;;;;;;6.72;2.20;;;;;;;16.31;49.57;100478.25;4388195;32;33914;-71
2023/10/06 05:06:34;;;;;;;5.60;1.62;;;;;;;16.43;49.16;100473.59;4392958;32;33420;-70
2023/10/06 05:09:02;;;;;;;4.45;1.87;;;;;;;16.32;49.56;100477.25;4392862;32;35086;-71
2023/10/06 05:11:32;;;;;;;4.12;1.85;;;;;;;16.31;49.59;100491.75;4387116;32;34045;-71
2023/10/06 05:14:01;;;;;;;5.05;3.05;;;;;;;16.21;49.84;100490.81;4388085;32;34050;-71
2023/10/06 05:16:28;;;;;;;8.15;2.95;;;;;;;16.24;49.95;100495.97;4391758;32;34122;-71
2023/10/06 05:18:56;;;;;;;4.47;2.20;;;;;;;16.39;49.56;100499.19;4385925;32;33439;-70
2023/10/06 05:21:24;;;;;;;3.22;1.90;;;;;;;16.44;49.51;100502.34;4391534;32;33881;-70
2023/10/06 05:23:53;;;;;;;10.27;3.67;;;;;;;16.40;50.05;100506.28;4390500;32;33854;-71
2023/10/06 05:26:20;;;;;;;4.82;3.15;;;;;;;16.51;49.58;100515.19;4384382;32;34413;-71
2023/10/06 05:28:50;;;;;;;9.57;3.65;;;;;;;16.64;49.34;100522.22;4392194;32;34383;-70
2023/10/06 05:31:18;;;;;;;4.57;2.53;;;;;;;16.60;49.52;100520.78;4388208;32;34814;-71
2023/10/06 05:33:46;;;;;;;9.90;4.12;;;;;;;16.12;50.92;100518.66;4381811;32;32031;-69
2023/10/06 05:36:13;;;;;;;7.25;2.75;;;;;;;16.28;50.47;100522.59;4380303;32;33528;-69
2023/10/06 05:38:47;;;;;;;6.22;2.05;;;;;;;16.55;49.73;100523.88;4391026;32;34629;-69
2023/10/06 05:41:15;;;;;;;7.22;2.35;;;;;;;16.56;49.63;100532.84;4383912;32;35225;-70
2023/10/06 05:43:43;;;;;;;8.02;2.87;;;;;;;15.98;51.07;100536.00;4389003;32;33752;-71
2023/10/06 05:46:11;;;;;;;4.03;2.15;;;;;;;16.08;51.40;100534.22;4389453;32;34297;-68
2023/10/06 05:48:39;;;;;;;9.73;2.62;;;;;;;16.35;50.32;100533.72;4393559;32;33930;-70
2023/10/06 05:51:14;;;;;;;4.45;1.90;;;;;;;16.24;50.24;100544.59;4367015;32;33822;-69
2023/10/06 05:53:43;;;;;;;8.18;2.53;;;;;;;16.48;49.86;100544.31;4388463;32;33714;-68
2023/10/06 05:56:12;;;;;;;5.00;2.05;;;;;;;16.59;49.53;100549.63;4389405;32;33093;-69
2023/10/06 05:58:40;;;;;;;5.87;2.85;;;;;;;16.75;49.05;100549.19;4394448;32;35036;-69
2023/10/06 06:01:20;;;;;;;6.05;2.87;;;;;;;16.70;49.47;100551.41;4387160;32;33894;-69
2023/10/06 06:03:49;;;;;;;5.47;2.85;;;;;;;16.89;49.10;100551.53;4385667;32;32199;-69
2023/10/06 06:06:22;;;;;;;5.22;2.45;;;;;;;17.08;48.48;100549.88;4383813;32;33363;-69
2023/10/06 06:08:51;;;;;;;2.75;1.83;;;;;;;17.08;48.51;100556.19;4385527;32;33473;-68
2023/10/06 06:11:20;;;;;;;2.30;1.37;;;;;;;17.17;48.25;100559.88;4380972;32;34181;-70
2023/10/06 06:13:48;;;;;;;4.85;1.90;;;;;;;17.26;48.18;100550.94;4379331;32;33636;-71
2023/10/06 06:16:30;;;;;;;7.55;1.60;;;;;;;17.20;47.97;100560.47;4386227;32;33508;-81
2023/10/06 06:18:58;;;;;;;6.75;3.17;;;;;;;17.06;48.34;100560.00;4390848;32;33545;-71
2023/10/06 06:21:26;;;;;;;4.62;1.95;;;;;;;16.86;49.09;100562.63;4386166;32;33767;-71
2023/10/06 06:23:55;;;;;;;9.15;3.17;;;;;;;16.96;48.73;100560.81;4387039;32;33966;-70
2023/10/06 06:26:24;;;;;;;9.63;2.97;;;;;;;16.93;48.92;100565.66;4381636;32;33018;-71
2023/10/06 06:28:52;;;;;;;5.70;2.15;;;;;;;16.86;48.92;100562.63;4383773;32;34944;-72
2023/10/06 06:31:21;;;;;;;4.72;1.58;;;;;;;16.53;49.77;100561.84;4382068;32;33570;-71
2023/10/06 06:33:55;;;;;;;2.40;1.55;;;;;;;16.69;49.61;100561.38;4381252;32;33693;-68
2023/10/06 06:36:26;;;;;;;15.95;3.00;;;;;;;16.65;49.81;100557.22;4385297;32;33556;-70
2023/10/06 06:38:54;;;;;;;9.10;3.20;;;;;;;16.71;49.67;100563.94;4380824;32;34459;-71
2023/10/06 06:41:21;;;;;;;4.10;2.15;;;;;;;16.84;49.48;100563.75;4383828;32;34240;-71
2023/10/06 06:43:54;;;;;;;7.60;2.70;;;;;;;16.84;49.29;100577.25;4384013;32;34695;-71
2023/10/06 06:46:22;;;;;;;6.03;3.15;;;;;;;16.76;49.13;100577.94;4388020;32;33973;-72
2023/10/06 06:48:49;;;;;;;10.38;2.75;;;;;;;16.46;49.81;100586.81;4385742;32;34281;-71
2023/10/06 06:51:18;;;;;;;3.78;1.98;;;;;;;16.88;48.74;100587.66;4381963;32;35205;-71
2023/10/06 06:53:47;;;;;;;2.47;1.23;;;;;;;16.73;49.75;100594.41;4383675;32;33692;-72
2023/10/06 06:56:17;;;;;;;3.97;2.25;;;;;;;16.83;49.22;100589.94;4385935;32;33241;-71
2023/10/06 06:58:46;;;;;;;4.07;2.17;;;;;;;16.75;49.10;100597.84;4379932;32;33888;-72
2023/10/06 07:01:16;;;;;;;5.97;2.17;;;;;;;16.82;49.10;100599.03;4382436;32;33842;-71
2023/10/06 07:03:44;;;;;;;2.12;1.02;;;;;;;16.71;49.60;100608.03;4381399;32;33993;-70
2023/10/06 07:06:16;;;;;;;5.82;1.55;;;;;;;16.87;49.16;100607.59;4379506;32;34038;-72
2023/10/06 07:08:45;;;;;;;3.30;1.65;;;;;;;16.75;49.60;100608.66;4380100;32;34763;-72
2023/10/06 07:11:13;;;;;;;4.55;1.83;;;;;;;17.05;49.54;100613.25;4382614;32;34024;-72
2023/10/06 07:13:42;;;;;;;9.55;3.97;;;;;;;17.09;49.48;100611.97;4383046;32;34084;-72
2023/10/06 07:16:10;;;;;;;4.53;2.00;;;;;;;16.95;50.40;100606.91;4389742;32;33287;-72
2023/10/06 07:18:37;;;;;;;5.95;2.37;;;;;;;17.34;49.43;100609.81;4384633;32;34755;-71
2023/10/06 07:21:09;;;;;;;7.90;2.30;;;;;;;17.42;48.91;100608.09;4383884;32;33278;-72
2023/10/06 07:23:40;;;;;;;2.53;1.27;;;;;;;17.41;49.05;100610.97;4377685;32;33820;-71
2023/10/06 07:26:11;;;;;;;5.37;2.67;;;;;;;17.91;48.13;100608.22;4383274;32;33427;-70
2023/10/06 07:28:39;;;;;;;2.45;1.35;;;;;;;18.02;47.67;100618.09;4389898;32;34632;-70
2023/10/06 07:31:12;;;;;;;1.98;1.42;;;;;;;18.36;46.77;100624.81;4376258;32;34108;-71
2023/10/06 07:33:44;;;;;;;5.32;2.28;;;;;;;17.61;48.34;100620.84;4383343;32;33799;-71
2023/10/06 07:36:17;;;;;;;4.55;2.92;;;;;;;18.04;47.60;100619.66;4380307;32;33966;-70
2023/10/06 07:38:46;;;;;;;8.27;3.65;;;;;;;18.10;47.15;100629.06;4381842;32;34097;-72
2023/10/06 07:41:18;;;;;;;2.83;1.48;;;;;;;18.08;47.02;100631.06;4388459;32;34009;-73
2023/10/06 07:43:46;;;;;;;5.78;1.20;;;;;;;18.21;46.69;100633.50;4386917;32;35082;-74
2023/10/06 07:46:15;;;;;;;6.25;2.42;;;;;;;18.14;47.12;100639.50;4387901;32;33434;-71
2023/10/06 07:48:50;;;;;;;3.80;1.37;;;;;;;18.01;47.81;100636.19;4385324;32;33619;-71
2023/10/06 07:51:19;;;;;;;6.53;1.87;;;;;;;18.37;46.13;100637.34;4379127;32;34337;-72
2023/10/06 07:53:48;;;;;;;8.85;2.35;;;;;;;18.33;47.07;100630.50;4379611;32;33771;-73
2023/10/06 07:56:18;;;;;;;5.87;2.00;;;;;;;18.64;45.94;100638.44;4376365;32;33467;-71
2023/10/06 07:58:46;;;;;;;5.30;1.95;;;;;;;18.79;45.41;100639.75;4380462;32;33651;-72
2023/10/06 08:01:14;;;;;;;6.55;2.40;;;;;;;18.79;45.49;100639.75;4378834;32;35202;-72
2023/10/06 08:03:44;;;;;;;16.75;3.15;;;;;;;18.75;46.41;100642.91;4386395;32;34567;-72
2023/10/06 08:06:11;;;;;;;14.70;3.62;;;;;;;18.64;46.59;100646.59;4394222;32;32880;-72
2023/10/06 08:08:39;;;;;;;13.38;2.55;;;;;;;18.83;45.94;100643.03;4387242;32;33613;-72
2023/10/06 08:11:08;;;;;;;5.03;2.53;;;;;;;19.15;45.53;100648.06;4379795;32;34049;-73
2023/10/06 08:13:38;;;;;;;5.47;1.75;;;;;;;18.81;46.72;100648.59;4383862;32;33969;-72
2023/10/06 08:16:11;;;;;;;8.00;3.12;;;;;;;19.34;45.13;100643.56;4387342;32;34452;-72
2023/10/06 08:18:40;;;;;;;5.82;2.00;;;;;;;19.23;45.21;100650.91;4377802;32;33577;-72
2023/10/06 08:21:07;;;;;;;5.35;2.35;;;;;;;19.00;45.67;100649.53;4379339;32;34932;-70
2023/10/06 08:23:35;;;;;;;5.57;2.12;;;;;;;19.51;44.67;100654.47;4386008;32;33654;-71
2023/10/06 08:26:07;;;;;;;7.05;1.87;;;;;;;19.26;44.96;100652.44;4380280;32;34098;-73
2023/10/06 08:28:36;;;;;;;6.55;3.03;;;;;;;19.07;45.75;100645.25;4379685;32;34820;-71
2023/10/06 08:31:03;;;;;;;5.28;2.65;;;;;;;19.34;45.44;100651.72;4396439;32;33886;-72
2023/10/06 08:33:32;;;;;;;4.78;2.62;;;;;;;19.94;43.65;100652.16;4386614;32;34405;-72
2023/10/06 08:36:01;;;;;;;6.93;2.08;;;;;;;19.02;46.04;100659.25;4387000;32;32946;-73
2023/10/06 08:38:30;;;;;;;6.72;2.58;;;;;;;19.31;45.66;100653.72;4387596;32;33863;-72
2023/10/06 08:41:01;;;;;;;4.57;1.45;;;;;;;19.89;44.40;100655.31;4388506;32;32796;-72
2023/10/06 08:43:31;;;;;;;6.18;2.28;;;;;;;20.19;43.93;100655.94;4377992;32;34623;-71
2023/10/06 08:45:59;;;;;;;4.28;2.17;;;;;;;20.39;43.26;100656.66;4386797;32;33195;-71
2023/10/06 08:48:32;;;;;;;10.05;2.22;;;;;;;20.12;44.07;100652.16;4369967;32;35107;-71
2023/10/06 08:51:07;;;;;;;4.30;2.55;;;;;;;19.98;44.43;100654.37;4380874;32;33720;-71
2023/10/06 08:53:38;;;;;;;6.53;2.67;;;;;;;20.17;43.20;100655.28;4392375;32;33952;-71
2023/10/06 08:56:05;;;;;;;6.05;2.47;;;;;;;20.41;42.57;100655.47;4388989;32;33668;-71
2023/10/06 08:58:35;;;;;;;6.87;2.40;;;;;;;20.73;42.41;100651.34;4391981;32;33755;-72
2023/10/06 09:01:06;;;;;;;4.72;2.42;;;;;;;20.93;41.31;100647.44;4389535;32;32266;-72
2023/10/06 09:03:38;;;;;;;5.35;2.25;;;;;;;21.17;40.56;100645.88;4391136;32;34808;-72
2023/10/06 09:06:06;;;;;;;5.72;2.67;;;;;;;21.22;41.12;100651.69;4393620;32;33739;-72
2023/10/06 09:08:42;;;;;;;6.62;2.50;;;;;;;21.06;41.12;100652.47;4392572;32;33653;-72
2023/10/06 09:11:10;;;;;;;;;;;;;;;20.87;41.24;100648.06;4392658;32;32981;-72
2023/10/06 09:13:38;;;;;;;5.55;3.20;;;;;;;21.17;40.64;100648.59;4389140;32;34330;-71
2023/10/06 09:16:06;;;;;;;4.40;1.70;;;;;;;21.27;40.73;100649.31;4394103;32;34537;-72
2023/10/06 09:18:35;;;;;;;4.55;1.70;;;;;;;21.38;39.10;100646.38;4386231;32;33691;-71
2023/10/06 09:21:15;;;;;;;6.35;3.03;;;;;;;21.24;38.83;100649.66;4385938;32;33947;-72
2023/10/06 09:23:44;;;;;;;8.18;3.17;;;;;;;21.15;39.83;100651.50;4387890;32;33821;-71
2023/10/06 09:26:15;;;;;;;6.65;2.67;;;;;;;21.43;40.04;100648.59;4385586;32;33028;-71
2023/10/06 09:28:52;;;;;;;8.20;2.28;;;;;;;21.61;39.65;100653.97;4386636;32;34862;-68
2023/10/06 09:31:37;;;;;;;4.87;2.42;;;;;;;21.54;39.72;100653.75;4387143;32;34733;-70
2023/10/06 09:34:07;;;;;;;7.60;2.93;;;;;;;21.87;38.96;100646.53;4386881;32;34700;-72
2023/10/06 09:36:36;;;;;;;10.57;3.25;;;;;;;21.82;38.77;100643.44;4385251;32;32996;-70
2023/10/06 09:39:17;;;;;;;9.43;2.62;;;;;;;21.72;39.30;100640.03;4383092;32;33329;-70
2023/10/06 09:41:47;;;;;;;4.53;1.95;;;;;;;21.74;38.76;100638.00;4384407;32;33676;-69
2023/10/06 09:44:18;;;;;;;2.65;1.70;;;;;;;22.10;38.37;100638.59;4386769;32;34065;-71
2023/10/06 09:46:52;;;;;;;4.37;2.00;;;;;;;21.61;37.92;100635.75;4383526;32;34092;-70
2023/10/06 09:49:21;;;;;;;4.10;1.77;;;;;;;22.09;36.48;100628.72;4390215;32;33962;-71
2023/10/06 09:51:51;;;;;;;3.60;1.60;;;;;;;22.06;35.65;100634.50;4381322;32;35192;-70
2023/10/06 09:54:22;;;;;;;4.07;1.60;;;;;;;21.71;35.21;100627.44;4382343;32;34178;-71
2023/10/06 09:56:54;;;;;;;10.57;1.58;;;;;;;22.03;34.78;100623.09;4384874;32;33460;-69
2023/10/06 09:59:25;;;;;;;4.62;1.83;;;;;;;22.31;34.77;100632.69;4381022;32;34812;-70
2023/10/06 10:01:54;;;;;;;2.70;1.35;;;;;;;22.44;34.02;100618.56;4363104;32;33835;-72
2023/10/06 10:04:25;;;;;;;3.78;1.48;;;;;;;22.05;34.68;100619.16;4364591;32;33788;-72
2023/10/06 10:06:53;;;;;;;7.40;1.40;;;;;;;22.31;34.30;100621.78;4370739;32;34344;-72
2023/10/06 10:09:22;;;;;;;3.92;1.40;;;;;;;22.09;35.05;100625.97;4389307;32;33833;-70
2023/10/06 10:12:07;;;;;;;2.85;1.33;;;;;;;21.65;35.75;100619.06;4366649;32;34034;-70
2023/10/06 10:14:57;;;;;;;5.32;2.30;;;;;;;21.60;36.80;100617.69;4350050;32;34827;-71
2023/10/06 10:17:36;;;;;;;5.57;1.75;;;;;;;21.66;35.87;100616.16;4338699;32;33200;-70
2023/10/06 10:20:09;;;;;;;6.87;2.30;;;;;;;21.61;36.04;100600.31;4336177;32;33544;-71
2023/10/06 10:22:40;;;;;;;6.53;2.20;;;;;;;22.48;34.25;100592.63;4336773;32;34145;-72
2023/10/06 10:25:13;;;;;;;4.93;2.53;;;;;;;22.40;35.02;100587.16;4339294;32;35011;-72
2023/10/06 10:28:30;;;;;;;3.15;1.25;;;;;;;22.37;34.47;100582.03;4334155;32;34223;-71
2023/10/06 10:30:59;;;;;;;;;;;;;;;22.84;34.19;100570.41;4294803;33;33700;-72
2023/10/06 10:33:29;;;;;;;3.78;1.37;;;;;;;23.21;32.57;100566.19;4296551;33;34461;-70
2023/10/06 10:36:14;;;;;;;3.58;1.27;;;;;;;22.89;34.63;100572.59;4294220;33;34977;-70
2023/10/06 10:38:42;;;;;;;3.28;1.65;;;;;;;22.44;35.54;100566.72;4296082;33;33230;-70
2023/10/06 10:41:10;;;;;;;3.55;1.23;;;;;;;22.25;35.54;100569.81;4293898;33;33630;-70
2023/10/06 10:43:40;;;;;;;4.85;1.52;;;;;;;22.72;33.60;100563.59;4296565;33;34204;-70
2023/10/06 10:46:08;;;;;;;3.58;1.80;;;;;;;22.93;33.47;100563.94;4277626;33;35035;-70
2023/10/06 10:48:37;;;;;;;3.62;1.55;;;;;;;22.67;34.15;100553.22;4294907;33;34220;-72
2023/10/06 10:51:10;;;;;;;3.92;1.92;;;;;;;23.31;33.49;100553.22;4289877;33;34957;-71
2023/10/06 10:53:43;;;;;;;3.95;1.60;;;;;;;23.51;33.66;100552.78;4302974;33;34321;-71
2023/10/06 10:56:13;;;;;;;4.47;1.52;;;;;;;23.34;33.70;100552.84;4319111;33;32534;-69
2023/10/06 10:58:44;;;;;;;3.00;1.45;;;;;;;23.85;33.08;100556.00;4324453;33;32872;-70
2023/10/06 11:01:36;;;;;;;3.90;1.50;;;;;;;23.09;33.71;100545.78;4331690;32;33319;-71
2023/10/06 11:06:43;;;;;;;8.77;2.67;;;;;;;23.28;33.31;100547.25;4384412;32;33904;-69
2023/10/06 11:09:25;;;;;;;9.57;1.77;;;;;;;23.56;33.59;100537.50;4387556;32;33174;-69
2023/10/06 11:11:58;;;;;;;4.57;1.95;;;;;;;23.43;34.12;100540.84;4383335;32;34739;-70
2023/10/06 11:14:49;;;;;;;8.05;1.98;;;;;;;23.72;33.40;100539.31;4384107;32;33596;-71
2023/10/06 11:17:26;;;;;;;4.47;1.90;;;;;;;23.92;33.68;100539.72;4390219;32;34551;-71
2023/10/06 11:20:21;;;;;;;4.50;1.83;;;;;;;23.56;34.39;100537.50;4388087;32;33160;-71
2023/10/06 11:22:54;;;;;;;5.35;1.48;;;;;;;23.93;32.47;100535.94;4389617;32;34790;-71
2023/10/06 11:25:44;;;;;;;4.85;1.98;;;;;;;23.32;33.97;100533.06;4389352;32;33952;-71
2023/10/06 11:28:12;;;;;;;4.82;1.45;;;;;;;23.27;33.94;100534.59;4388669;32;34052;-71
2023/10/06 11:30:41;;;;;;;2.92;1.27;;;;;;;23.71;33.38;100532.16;4383631;32;32942;-71
2023/10/06 11:33:11;;;;;;;3.92;1.45;;;;;;;23.69;33.54;100536.97;4385666;32;34968;-71
2023/10/06 11:35:40;;;;;;;4.50;1.92;;;;;;;23.72;33.16;100528.41;4385284;32;34903;-71
2023/10/06 11:38:11;;;;;;;5.68;1.30;;;;;;;23.87;32.85;100532.06;4383408;32;33742;-72
2023/10/06 11:40:40;;;;;;;4.43;1.55;;;;;;;23.31;34.10;100539.56;4382865;32;33388;-72
2023/10/06 11:43:13;;;;;;;5.87;1.60;;;;;;;23.20;33.92;100531.75;4391648;32;33835;-73
2023/10/06 11:45:42;;;;;;;2.65;1.45;;;;;;;23.87;33.59;100536.69;4387044;32;33881;-73
2023/10/06 11:48:28;;;;;;;1.65;0.90;;;;;;;23.65;33.49;100522.78;4380819;32;33571;-73
2023/10/06 11:51:06;;;;;;;2.40;0.88;;;;;;;23.12;33.65;100513.53;4380976;32;35080;-73
2023/10/06 11:53:36;;;;;;;2.87;1.23;;;;;;;23.47;33.29;100514.87;4383013;32;33470;-73
2023/10/06 11:56:13;;;;;;;2.90;1.02;;;;;;;23.47;33.11;100509.41;4388639;32;35125;-73